createdAt,value
2019-01-17T00:01:04.273Z,0
2019-01-17T00:04:10.234Z,0
2019-01-17T00:07:16.296Z,0
2019-01-17T00:10:22.153Z,0
2019-01-17T00:13:28.253Z,0
2019-01-17T00:16:34.261Z,0
2019-01-17T00:19:40.221Z,0
2019-01-17T00:22:46.199Z,0
2019-01-17T00:25:52.156Z,0
2019-01-17T00:28:58.149Z,0
2019-01-17T00:32:04.177Z,0
2019-01-17T00:35:10.038Z,0
2019-01-17T00:38:15.984Z,0
2019-01-17T00:41:22.046Z,0
2019-01-17T00:44:27.917Z,0
2019-01-17T00:47:33.957Z,0
2019-01-17T00:50:39.835Z,0
2019-01-17T00:53:45.784Z,0
2019-01-17T00:56:51.658Z,0
2019-01-17T00:59:57.592Z,0
2019-01-17T01:03:03.553Z,0
2019-01-17T01:06:09.428Z,0
2019-01-17T01:09:15.369Z,0
2019-01-17T01:12:21.357Z,0
2019-01-17T01:15:27.340Z,0
2019-01-17T01:18:33.210Z,0
2019-01-17T01:21:39.211Z,0
2019-01-17T01:24:46.609Z,0
2019-01-17T01:27:52.478Z,0
2019-01-17T01:30:58.523Z,0
2019-01-17T01:34:04.398Z,0
2019-01-17T01:37:10.339Z,0
2019-01-17T01:40:16.299Z,0
2019-01-17T01:43:22.174Z,0
2019-01-17T01:46:28.218Z,0
2019-01-17T01:49:34.098Z,0
2019-01-17T01:52:40.138Z,0
2019-01-17T01:55:46.606Z,0
2019-01-17T01:58:52.573Z,0
2019-01-17T02:01:58.649Z,0
2019-01-17T02:05:04.508Z,0
2019-01-17T02:08:10.555Z,0
2019-01-17T02:11:16.603Z,0
2019-01-17T02:14:22.487Z,0
2019-01-17T02:17:28.419Z,0
2019-01-17T02:20:34.291Z,0
2019-01-17T02:23:40.243Z,0
2019-01-17T02:26:46.135Z,0
2019-01-17T02:29:52.156Z,0
2019-01-17T02:32:58.115Z,0
2019-01-17T02:36:04.035Z,0
2019-01-17T02:39:10.035Z,0
2019-01-17T02:42:16.098Z,0
2019-01-17T02:45:22.146Z,0
2019-01-17T02:48:28.123Z,0
2019-01-17T02:51:33.996Z,0
2019-01-17T02:54:40.040Z,0
2019-01-17T02:57:45.923Z,0
2019-01-17T03:00:51.858Z,0
2019-01-17T03:03:57.727Z,0
2019-01-17T03:07:03.825Z,0
2019-01-17T03:10:09.836Z,0
2019-01-17T03:13:15.769Z,0
2019-01-17T03:16:21.858Z,0
2019-01-17T03:19:27.814Z,0
2019-01-17T03:22:33.873Z,0
2019-01-17T03:25:39.833Z,0
2019-01-17T03:28:45.894Z,0
2019-01-17T03:31:51.846Z,0
2019-01-17T03:34:57.815Z,0
2019-01-17T03:38:03.823Z,0
2019-01-17T03:41:09.913Z,0
2019-01-17T03:44:15.900Z,0
2019-01-17T03:47:21.858Z,0
2019-01-17T03:50:27.920Z,0
2019-01-17T03:53:33.882Z,0
2019-01-17T03:56:39.844Z,0
2019-01-17T03:59:45.911Z,0
2019-01-17T04:02:52.064Z,0
2019-01-17T04:05:58.245Z,0
2019-01-17T04:09:04.400Z,187.2
2019-01-17T04:12:10.368Z,249.1
2019-01-17T04:15:16.422Z,260.6
2019-01-17T04:18:22.656Z,265
2019-01-17T04:21:28.616Z,266.4
2019-01-17T04:24:34.703Z,267.8
2019-01-17T04:27:40.636Z,267.8
2019-01-17T04:30:46.619Z,267.8
2019-01-17T04:33:52.633Z,267.8
2019-01-17T04:36:58.596Z,267.8
2019-01-17T04:40:04.638Z,270.7
2019-01-17T04:43:10.612Z,270.7
2019-01-17T04:46:16.518Z,270.7
2019-01-17T04:49:22.480Z,270.7
2019-01-17T04:52:28.436Z,270.7
2019-01-17T04:55:34.449Z,270.7
2019-01-17T04:58:40.465Z,270.7
2019-01-17T05:01:46.522Z,270.7
2019-01-17T05:04:52.432Z,270.7
2019-01-17T05:08:01.288Z,270.7
2019-01-17T05:11:07.162Z,270.7
2019-01-17T05:14:13.127Z,270.7
2019-01-17T05:17:19.004Z,270.7
2019-01-17T05:20:25.046Z,270.7
2019-01-17T05:23:31.182Z,269.3
2019-01-17T05:26:37.359Z,270.7
2019-01-17T05:29:43.341Z,269.3
2019-01-17T05:32:49.586Z,270.7
2019-01-17T05:35:55.662Z,269.3
2019-01-17T05:39:01.725Z,269.3
2019-01-17T05:42:10.543Z,236.2
2019-01-17T05:45:16.511Z,266.4
2019-01-17T05:48:22.576Z,266.4
2019-01-17T05:51:28.440Z,265
2019-01-17T05:54:34.398Z,266.4
2019-01-17T05:57:40.458Z,266.4
2019-01-17T06:00:46.467Z,266.4
2019-01-17T06:03:52.477Z,265
2019-01-17T06:06:58.349Z,266.4
2019-01-17T06:10:04.402Z,266.4
2019-01-17T06:13:10.367Z,266.4
2019-01-17T06:16:17.331Z,272.2
2019-01-17T06:19:26.058Z,275
2019-01-17T06:22:32.118Z,256.3
2019-01-17T06:25:38.058Z,283.7
2019-01-17T06:28:44.045Z,277.9
2019-01-17T06:31:50.095Z,280.8
2019-01-17T06:34:56.159Z,285.1
2019-01-17T06:38:02.033Z,289.4
2019-01-17T06:41:09.398Z,292.3
2019-01-17T06:44:21.829Z,293.8
2019-01-17T06:47:27.785Z,289.4
2019-01-17T06:50:33.940Z,246.2
2019-01-17T06:53:40.122Z,292.3
2019-01-17T06:56:46.068Z,293.8
2019-01-17T06:59:51.976Z,260.6
2019-01-17T07:02:57.883Z,231.8
2019-01-17T07:06:03.942Z,295.2
2019-01-17T07:09:09.914Z,295.2
2019-01-17T07:12:15.866Z,290.9
2019-01-17T07:15:21.927Z,292.3
2019-01-17T07:18:27.801Z,292.3
2019-01-17T07:21:33.739Z,292.3
2019-01-17T07:24:39.654Z,292.3
2019-01-17T07:27:45.661Z,290.9
2019-01-17T07:30:51.673Z,286.6
2019-01-17T07:33:57.939Z,290.9
2019-01-17T07:37:04.874Z,289.4
2019-01-17T07:40:11.704Z,282.2
2019-01-17T07:43:17.823Z,280.8
2019-01-17T07:46:23.819Z,289.4
2019-01-17T07:49:29.689Z,288
2019-01-17T07:52:37.944Z,286.6
2019-01-17T07:55:50.559Z,285.1
2019-01-17T07:58:57.593Z,285.1
2019-01-17T08:02:03.761Z,286.6
2019-01-17T08:05:10.873Z,285.1
2019-01-17T08:08:16.902Z,285.1
2019-01-17T08:11:22.791Z,283.7
2019-01-17T08:14:28.897Z,280.8
2019-01-17T08:17:34.937Z,283.7
2019-01-17T08:20:40.898Z,282.2
2019-01-17T08:23:46.920Z,282.2
2019-01-17T08:26:53.432Z,280.8
2019-01-17T08:29:59.592Z,280.8
2019-01-17T08:33:05.636Z,280.8
2019-01-17T08:36:16.760Z,280.8
2019-01-17T08:39:22.901Z,280.8
2019-01-17T08:42:28.861Z,280.8
2019-01-17T08:45:35.228Z,280.8
2019-01-17T08:48:41.290Z,280.8
2019-01-17T08:51:47.252Z,280.8
2019-01-17T08:54:53.313Z,280.8
2019-01-17T08:57:59.177Z,280.8
2019-01-17T09:01:06.369Z,280.8
2019-01-17T09:04:12.231Z,280.8
2019-01-17T09:07:18.271Z,279.4
2019-01-17T09:10:26.293Z,282.2
2019-01-17T09:13:32.225Z,280.8
2019-01-17T09:16:38.210Z,280.8
2019-01-17T09:19:44.148Z,280.8
2019-01-17T09:22:50.227Z,282.2
2019-01-17T09:25:56.195Z,282.2
2019-01-17T09:29:02.083Z,282.2
2019-01-17T09:32:08.402Z,282.2
2019-01-17T09:35:14.378Z,282.2
2019-01-17T09:38:20.438Z,282.2
2019-01-17T09:41:26.404Z,282.2
2019-01-17T09:44:32.550Z,283.7
2019-01-17T09:47:39.111Z,283.7
2019-01-17T09:50:45.949Z,283.7
2019-01-17T09:53:52.361Z,283.7
2019-01-17T09:56:58.425Z,283.7
2019-01-17T10:00:04.693Z,285.1
2019-01-17T10:03:11.132Z,285.1
2019-01-17T10:06:17.155Z,243.4
2019-01-17T10:09:23.221Z,221.8
2019-01-17T10:12:29.181Z,253.4
2019-01-17T10:15:35.224Z,286.6
2019-01-17T10:18:42.208Z,286.6
2019-01-17T10:21:48.526Z,286.6
2019-01-17T10:24:54.537Z,288
2019-01-17T10:28:00.468Z,288
2019-01-17T10:31:09.324Z,288
2019-01-17T10:34:18.122Z,288
2019-01-17T10:37:24.518Z,288
2019-01-17T10:40:30.436Z,286.6
2019-01-17T10:43:36.454Z,288
2019-01-17T10:46:42.359Z,286.6
2019-01-17T10:49:48.475Z,288
2019-01-17T10:52:54.436Z,288
2019-01-17T10:56:00.482Z,288
2019-01-17T10:59:06.361Z,288
2019-01-17T11:02:12.398Z,289.4
2019-01-17T11:05:18.391Z,285.1
2019-01-17T11:08:24.353Z,367.2
2019-01-17T11:11:30.379Z,273.6
2019-01-17T11:14:36.358Z,282.2
2019-01-17T11:17:43.423Z,283.7
2019-01-17T11:20:49.401Z,283.7
2019-01-17T11:23:55.560Z,282.2
2019-01-17T11:27:01.513Z,276.5
2019-01-17T11:30:08.091Z,285.1
2019-01-17T11:33:14.054Z,285.1
2019-01-17T11:36:20.049Z,285.1
2019-01-17T11:39:26.044Z,285.1
2019-01-17T11:42:32.119Z,282.2
2019-01-17T11:45:38.105Z,282.2
2019-01-17T11:48:44.261Z,282.2
2019-01-17T11:51:50.708Z,257.8
2019-01-17T11:54:56.794Z,273.6
2019-01-17T11:58:02.850Z,276.5
2019-01-17T12:01:08.814Z,277.9
2019-01-17T12:04:15.991Z,276.5
2019-01-17T12:07:21.947Z,276.5
2019-01-17T12:10:28.022Z,273.6
2019-01-17T12:13:34.071Z,275
2019-01-17T12:16:40.238Z,275
2019-01-17T12:19:46.294Z,282.2
2019-01-17T12:22:52.369Z,276.5
2019-01-17T12:25:58.328Z,280.8
2019-01-17T12:29:04.329Z,280.8
2019-01-17T12:32:10.356Z,280.8
2019-01-17T12:35:16.421Z,279.4
2019-01-17T12:38:22.563Z,279.4
2019-01-17T12:41:28.621Z,277.9
2019-01-17T12:44:34.602Z,270.7
2019-01-17T12:47:40.964Z,224.6
2019-01-17T12:50:48.976Z,276.5
2019-01-17T12:53:54.933Z,276.5
2019-01-17T12:57:00.879Z,276.5
2019-01-17T13:00:10.732Z,279.4
2019-01-17T13:03:16.805Z,279.4
2019-01-17T13:06:22.864Z,279.4
2019-01-17T13:09:29.937Z,279.4
2019-01-17T13:12:35.956Z,277.9
2019-01-17T13:15:41.974Z,277.9
2019-01-17T13:18:48.026Z,276.5
2019-01-17T13:21:54.189Z,276.5
2019-01-17T13:25:01.079Z,276.5
2019-01-17T13:28:08.359Z,276.5
2019-01-17T13:31:14.344Z,276.5
2019-01-17T13:34:20.432Z,276.5
2019-01-17T13:37:26.276Z,276.5
2019-01-17T13:40:32.236Z,275
2019-01-17T13:43:38.267Z,275
2019-01-17T13:46:44.519Z,273.6
2019-01-17T13:49:50.493Z,273.6
2019-01-17T13:52:56.652Z,272.2
2019-01-17T13:56:02.531Z,272.2
2019-01-17T13:59:08.566Z,270.7
2019-01-17T14:02:14.639Z,270.7
2019-01-17T14:05:20.712Z,270.7
2019-01-17T14:08:26.600Z,270.7
2019-01-17T14:11:32.621Z,270.7
2019-01-17T14:14:40.752Z,269.3
2019-01-17T14:17:46.889Z,269.3
2019-01-17T14:20:52.881Z,269.3
2019-01-17T14:23:58.812Z,269.3
2019-01-17T14:27:04.748Z,267.8
2019-01-17T14:30:10.793Z,265
2019-01-17T14:33:17.009Z,266.4
2019-01-17T14:36:24.651Z,266.4
2019-01-17T14:39:32.846Z,265
2019-01-17T14:42:39.071Z,265
2019-01-17T14:45:44.929Z,265
2019-01-17T14:48:50.892Z,263.5
2019-01-17T14:51:56.954Z,263.5
2019-01-17T14:55:04.248Z,263.5
2019-01-17T14:58:10.315Z,263.5
2019-01-17T15:01:16.241Z,260.6
2019-01-17T15:04:22.239Z,259.2
2019-01-17T15:07:28.184Z,259.2
2019-01-17T15:10:34.350Z,260.6
2019-01-17T15:13:40.381Z,260.6
2019-01-17T15:16:46.265Z,260.6
2019-01-17T15:19:52.363Z,260.6
2019-01-17T15:22:58.401Z,260.6
2019-01-17T15:26:04.393Z,262.1
2019-01-17T15:29:12.365Z,262.1
2019-01-17T15:32:18.310Z,262.1
2019-01-17T15:35:25.294Z,262.1
2019-01-17T15:38:31.232Z,260.6
2019-01-17T15:41:37.213Z,260.6
2019-01-17T15:44:43.152Z,259.2
2019-01-17T15:47:49.235Z,260.6
2019-01-17T15:50:55.107Z,260.6
2019-01-17T15:54:01.059Z,260.6
2019-01-17T15:57:06.932Z,260.6
2019-01-17T16:00:12.954Z,260.6
2019-01-17T16:03:19.023Z,260.6
2019-01-17T16:06:25.092Z,262.1
2019-01-17T16:09:31.055Z,263.5
2019-01-17T16:12:37.939Z,262.1
2019-01-17T16:15:45.227Z,263.5
2019-01-17T16:18:51.165Z,262.1
2019-01-17T16:21:58.274Z,263.5
2019-01-17T16:25:04.322Z,262.1
2019-01-17T16:28:10.401Z,263.5
2019-01-17T16:31:19.635Z,263.5
2019-01-17T16:34:25.598Z,263.5
2019-01-17T16:37:31.569Z,262.1
2019-01-17T16:40:37.618Z,262.1
2019-01-17T16:43:43.628Z,263.5
2019-01-17T16:46:49.496Z,262.1
2019-01-17T16:49:55.495Z,263.5
2019-01-17T16:53:01.667Z,263.5
2019-01-17T16:56:07.527Z,263.5
2019-01-17T16:59:13.578Z,263.5
2019-01-17T17:02:19.466Z,265
2019-01-17T17:05:25.508Z,263.5
2019-01-17T17:08:31.365Z,263.5
2019-01-17T17:11:37.314Z,263.5
2019-01-17T17:14:43.275Z,263.5
2019-01-17T17:17:49.232Z,265
2019-01-17T17:20:55.184Z,263.5
2019-01-17T17:24:01.155Z,263.5
2019-01-17T17:27:07.170Z,263.5
2019-01-17T17:30:13.266Z,265
2019-01-17T17:33:19.139Z,265
2019-01-17T17:36:25.099Z,263.5
2019-01-17T17:39:31.055Z,263.5
2019-01-17T17:42:37.007Z,265
2019-01-17T17:45:42.985Z,265
2019-01-17T17:48:48.929Z,265
2019-01-17T17:51:54.796Z,265
2019-01-17T17:55:00.792Z,265
2019-01-17T17:58:06.908Z,266.4
2019-01-17T18:01:12.781Z,265
2019-01-17T18:04:18.836Z,265
2019-01-17T18:07:24.849Z,265
2019-01-17T18:10:30.899Z,265
2019-01-17T18:13:36.817Z,266.4
2019-01-17T18:16:42.686Z,266.4
2019-01-17T18:19:48.723Z,266.4
2019-01-17T18:22:54.632Z,267.8
2019-01-17T18:26:00.642Z,266.4
2019-01-17T18:29:06.704Z,266.4
2019-01-17T18:32:12.595Z,266.4
2019-01-17T18:35:18.525Z,267.8
2019-01-17T18:38:24.481Z,266.4
2019-01-17T18:41:30.446Z,267.8
2019-01-17T18:44:36.404Z,266.4
2019-01-17T18:47:42.283Z,267.8
2019-01-17T18:50:48.319Z,267.8
2019-01-17T18:53:54.264Z,267.8
2019-01-17T18:57:00.240Z,267.8
2019-01-17T19:00:06.179Z,267.8
2019-01-17T19:03:12.175Z,267.8
2019-01-17T19:06:18.228Z,266.4
2019-01-17T19:09:25.426Z,267.8
2019-01-17T19:12:31.397Z,267.8
2019-01-17T19:15:37.297Z,267.8
2019-01-17T19:18:44.829Z,267.8
2019-01-17T19:21:50.748Z,2.7
2019-01-17T19:24:57.734Z,2.7
2019-01-17T19:28:03.696Z,2.7
2019-01-17T19:31:09.741Z,2.7
2019-01-17T19:34:15.760Z,2.7
2019-01-17T19:37:21.626Z,2.7
2019-01-17T19:40:27.796Z,2.7
2019-01-17T19:43:33.738Z,2.7
2019-01-17T19:46:39.689Z,2.7
2019-01-17T19:49:45.676Z,2.7
2019-01-17T19:52:51.771Z,2.7
2019-01-17T19:55:58.069Z,2.7
2019-01-17T19:59:03.956Z,2.7
2019-01-17T20:02:10.034Z,2.7
2019-01-17T20:05:16.106Z,2.7
2019-01-17T20:08:22.062Z,2.7
2019-01-17T20:11:30.244Z,2.6
2019-01-17T20:14:36.205Z,2.6
2019-01-17T20:17:42.549Z,2.7
2019-01-17T20:20:48.606Z,2.6
2019-01-17T20:23:54.870Z,2.6
2019-01-17T20:27:01.172Z,2.6
2019-01-17T20:30:07.125Z,2.7
2019-01-17T20:33:13.196Z,2.7
2019-01-17T20:36:19.541Z,2.6
2019-01-17T20:39:25.732Z,2.6
2019-01-17T20:42:31.803Z,2.6
2019-01-17T20:45:37.749Z,2.6
2019-01-17T20:48:44.830Z,2.6
2019-01-17T20:51:50.887Z,2.6
2019-01-17T20:54:56.774Z,2.6
2019-01-17T20:58:03.023Z,2.6
2019-01-17T21:01:08.871Z,2.6
2019-01-17T21:04:14.826Z,2.6
2019-01-17T21:07:20.889Z,2.6
2019-01-17T21:10:26.774Z,2.6
2019-01-17T21:13:32.707Z,2.6
2019-01-17T21:16:38.668Z,2.6
2019-01-17T21:19:44.559Z,2.6
2019-01-17T21:22:50.486Z,2.6
2019-01-17T21:25:56.542Z,2.6
2019-01-17T21:29:07.615Z,2.6
2019-01-17T21:32:13.513Z,194.4
2019-01-17T21:35:19.443Z,249.1
2019-01-17T21:38:25.382Z,259.2
2019-01-17T21:41:31.357Z,263.5
2019-01-17T21:44:37.244Z,265
2019-01-17T21:47:43.230Z,266.4
2019-01-17T21:50:49.241Z,266.4
2019-01-17T21:53:55.183Z,266.4
2019-01-17T21:57:01.160Z,266.4
2019-01-17T22:00:07.046Z,263.5
2019-01-17T22:03:12.985Z,0
2019-01-17T22:06:19.018Z,0
2019-01-17T22:09:24.994Z,0
2019-01-17T22:12:30.874Z,0
2019-01-17T22:15:36.831Z,0
2019-01-17T22:18:42.708Z,0
2019-01-17T22:21:48.737Z,0
2019-01-17T22:24:54.608Z,0
2019-01-17T22:28:00.552Z,0
2019-01-17T22:31:06.419Z,0
2019-01-17T22:34:12.365Z,0
2019-01-17T22:37:18.430Z,0
2019-01-17T22:40:24.384Z,0
2019-01-17T22:43:30.344Z,0
2019-01-17T22:46:36.282Z,0
2019-01-17T22:49:42.354Z,0
2019-01-17T22:52:48.331Z,0
2019-01-17T22:55:54.392Z,0
2019-01-17T22:59:00.334Z,0
2019-01-17T23:02:12.764Z,0
2019-01-17T23:05:18.653Z,0
2019-01-17T23:08:24.582Z,0
2019-01-17T23:11:33.410Z,0
2019-01-17T23:14:39.299Z,0
2019-01-17T23:17:45.220Z,0
2019-01-17T23:20:51.090Z,0
2019-01-17T23:23:57.038Z,0
2019-01-17T23:27:03.095Z,0
2019-01-17T23:30:09.166Z,0
2019-01-17T23:33:15.032Z,0
2019-01-17T23:36:21.064Z,0
2019-01-17T23:39:27.046Z,0
2019-01-17T23:42:32.918Z,0
2019-01-17T23:45:38.861Z,0
2019-01-17T23:48:44.775Z,0
2019-01-17T23:51:50.782Z,0
2019-01-17T23:54:56.651Z,0
2019-01-17T23:58:02.599Z,0
